Terminal Aerodrome Forecast
Issued by NWS Cleveland, OH

Home | Current Version | Previous Version | Graphics & Text | Print | Product List | Glossary Off
Versions: 1 2 3 4 5 6 7 8 9 10 11 12 13 14 15 16

000
FTUS41 KCLE 060540
TAFCAK
TAF
KCAK 060540Z 0606/0706 09004KT P6SM SCT100 BKN200
     FM061100 VRB04KT P6SM BKN100 OVC250
     FM062000 24004KT P6SM BKN250
     FM070000 19004KT P6SM SKC=

USA.gov is the U.S. government's official web portal to all federal, state and local government web resources and services.